Palermo, Italy

8:56 AM CEST on September 03, 2014 (GMT +0200)
Punta Raisi | Change Station
CLOSE
Current Station
Airport
Location: Palermo,
Elevation: 112 ft
Nearby Weather Stations
Active Advisory: Thunderstorms

Elev 112 ft 38.18 °N, 13.10 °E | Updated 6 minutes ago

Mostly Cloudy
Mostly Cloudy
77 °F
Feels Like 77 °F
N
15
Wind Variable Wind from WNW

Today
High -- | Low -- °F
--% Chance of Precip.
Yesterday
High -- | Low -- °F
Precip. -- in
6:38 AM 7:34 PM
First Quarter, 59% visible
Pressure 29.80 in
Visibility 6.2 miles
Clouds Mostly Cloudy 3000 ft
Dew Point 66 °F
Humidity 69%
Rainfall 0.00 in
Snow Depth Not available.
UV 1 out of 12
Pollen Not available.
Air Quality Not available.
Flu Activity Not available.
METAR LICJ 030650Z 30013KT 9999 BKN030 25/19 Q1009

More Conditions Fewer Conditions

Pressure 29.80 in
Visibility 6.2 miles
Clouds Mostly Cloudy 3000 ft
Dew Point 66 °F
Humidity 69%
Rainfall 0.00 in
Snow Depth Not available.
UV 1 out of 12
Pollen Not available.
Air Quality Not available.
Flu Activity Not available.
METAR LICJ 030650Z 30013KT 9999 BKN030 25/19 Q1009

More Conditions Fewer Conditions

10-Day Weather Forecast

Almanac

Astronomy

Sep. 03, 2014 Rise Set
Actual Time 6:38 AM CEST 7:34 PM CEST
Civil Twilight 6:11 AM CEST 8:01 PM CEST
Nautical Twilight 5:39 AM CEST 8:33 PM CEST
Astronomical Twilight 5:06 AM CEST 9:06 PM CEST
Moon 2:57 PM CEST 12:20 AM CEST
Length of Visible Light 13h 49m
Length of Day
12h 55m
Tomorrow will be 2m 24s shorter.
First Quarter, 59% of the Moon is Illuminated
Today
First Quarter
Sep 8
Full
Sep 15
Last Quarter
Sep 24
New
Oct 1
First Quarter

Yesterday's Extremes

Country Highs Country Lows

Community

WunderPhotos

Upload Photos

1,749,888 photos uploaded!

Nearby

Snow Depth

Not available.

Earthquake Activity

City Distance Mag. Time & Date
No recent earthquake activity has been reported nearby.
Minimum magnitude displayed is 2.5.

Coastal Water Temperatures

Place Temperature
No Stations Reporting

Nearby Weather Stations